Time;durP1;ratioP1;P1;durP2;ratioP2;P2;SDS_P1;SDS_P2;PMS_P1;PMS_P2;Temp;Humidity;BMP_temperature;BMP_pressure;BME280_temperature;BME280_humidity;BME280_pressure;Samples;Min_cycle;Max_cycle;Signal;HPM_P1;HPM_P2
2022/01/02 07:44:45;;;;;;;;;10.33;10.33;;;;;-149.69;100.00;58464.25;6192801;22;45764;-94
2022/01/02 07:47:10;;;;;;;;;12.33;11.00;;;;;-149.69;100.00;58464.25;6240721;22;45425;-95
2022/01/02 07:49:36;;;;;;;;;14.33;10.67;;;;;-149.69;100.00;58464.25;6215823;22;49218;-94
2022/01/02 07:52:02;;;;;;;;;10.00;10.00;;;;;-149.69;100.00;58464.25;6240971;22;45354;-92
2022/01/02 07:54:27;;;;;;;;;11.00;11.00;;;;;-149.69;100.00;58464.25;6239868;22;45349;-93
2022/01/02 07:56:52;;;;;;;;;12.33;12.00;;;;;-149.69;100.00;58464.25;6239208;22;45251;-92
2022/01/02 07:59:18;;;;;;;;;12.00;11.00;;;;;-149.69;100.00;58464.25;6216193;22;47860;-95
2022/01/02 08:01:43;;;;;;;;;12.33;10.67;;;;;-149.69;100.00;58464.25;6217063;22;45331;-95
2022/01/02 08:04:09;;;;;;;;;13.00;11.67;;;;;-149.69;100.00;58464.25;6216173;22;45291;-96
2022/01/02 08:06:34;;;;;;;;;12.67;11.33;;;;;-149.69;100.00;58464.25;6218386;22;45200;-95
2022/01/02 08:09:00;;;;;;;;;12.00;10.67;;;;;-149.69;100.00;58464.25;6217079;22;47753;-96
2022/01/02 08:11:25;;;;;;;;;13.67;13.00;;;;;-149.69;100.00;58464.25;6214716;22;45789;-95
2022/01/02 08:13:51;;;;;;;;;13.33;12.33;;;;;-149.69;100.00;58464.25;6214954;22;45410;-96
2022/01/02 08:16:16;;;;;;;;;12.67;11.00;;;;;-149.69;100.00;58464.25;6214623;22;45386;-96
2022/01/02 08:18:42;;;;;;;;;10.00;9.33;;;;;-149.69;100.00;58464.25;6215635;22;47968;-95
2022/01/02 08:21:08;;;;;;;;;13.00;12.00;;;;;-149.69;100.00;58464.25;6216189;22;45211;-95
2022/01/02 08:23:34;;;;;;;;;10.00;9.00;;;;;-149.69;100.00;58464.25;6218235;22;45281;-96
2022/01/02 08:26:00;;;;;;;;;11.00;10.33;;;;;-149.69;100.00;58464.25;6217073;22;45530;-94
2022/01/02 08:28:26;;;;;;;;;13.33;10.33;;;;;-149.69;100.00;58464.25;6216619;22;46918;-88
2022/01/02 08:30:51;;;;;;;;;12.33;11.00;;;;;-149.69;100.00;58464.25;6239614;22;45388;-89
2022/01/02 08:33:17;;;;;;;;;12.33;11.67;;;;;-149.69;100.00;58464.25;6241384;22;45459;-89
2022/01/02 08:35:44;;;;;;;;;7.67;6.33;;;;;-149.69;100.00;58464.25;6240540;22;45326;-89
2022/01/02 08:38:11;;;;;;;;;13.67;11.00;;;;;-149.69;100.00;58464.25;6239336;22;46478;-89
2022/01/02 08:40:38;;;;;;;;;10.00;10.00;;;;;-149.69;100.00;58464.25;6237274;22;45501;-89
2022/01/02 08:43:04;;;;;;;;;14.00;13.00;;;;;-149.69;100.00;58464.25;6239323;22;45370;-88
2022/01/02 08:45:30;;;;;;;;;12.00;11.00;;;;;-149.69;100.00;58464.25;6239767;22;45303;-89
2022/01/02 08:47:55;;;;;;;;;11.00;10.67;;;;;-149.69;100.00;58464.25;6239220;22;46399;-89
2022/01/02 08:50:21;;;;;;;;;13.67;13.00;;;;;-149.69;100.00;58464.25;6239555;22;45338;-88
2022/01/02 08:52:46;;;;;;;;;13.67;10.00;;;;;-149.69;100.00;58464.25;6239445;22;45618;-88
2022/01/02 08:55:12;;;;;;;;;12.33;12.33;;;;;-149.69;100.00;58464.25;6242024;22;45323;-93
2022/01/02 08:57:37;;;;;;;;;10.33;10.33;;;;;-149.69;100.00;58464.25;6217215;22;46972;-95
2022/01/02 09:00:04;;;;;;;;;11.33;11.33;;;;;-149.69;100.00;58464.25;6215183;22;45347;-94
2022/01/02 09:02:30;;;;;;;;;14.00;11.00;;;;;-149.69;100.00;58464.25;6215496;22;45326;-96
2022/01/02 09:04:55;;;;;;;;;10.67;10.33;;;;;-149.69;100.00;58464.25;6240123;22;45477;-91
2022/01/02 09:07:20;;;;;;;;;10.00;10.00;;;;;-149.69;100.00;58464.25;6241608;22;47055;-94
2022/01/02 09:09:46;;;;;;;;;12.00;10.00;;;;;-149.69;100.00;58464.25;6218845;22;45291;-95
2022/01/02 09:12:14;;;;;;;;;11.33;11.33;;;;;-149.69;100.00;58464.25;6203125;22;45246;-93
2022/01/02 09:14:41;;;;;;;;;12.00;9.67;;;;;-149.69;100.00;58464.25;6235345;22;45723;-96
2022/01/02 09:17:06;;;;;;;;;16.67;11.00;;;;;-149.69;100.00;58464.25;6212793;22;47253;-94
2022/01/02 09:19:31;;;;;;;;;14.33;11.67;;;;;-149.69;100.00;58464.25;6212574;22;45708;-90
2022/01/02 09:21:58;;;;;;;;;12.33;9.33;;;;;-149.69;100.00;58464.25;6213087;22;45342;-94
2022/01/02 09:24:23;;;;;;;;;12.33;12.00;;;;;-149.69;100.00;58464.25;6211165;22;45117;-92
2022/01/02 09:26:49;;;;;;;;;10.00;10.00;;;;;-149.69;100.00;58464.25;6205898;22;47230;-91
2022/01/02 09:29:14;;;;;;;;;12.00;10.00;;;;;-149.69;100.00;58464.25;6207427;22;45264;-91
2022/01/02 09:31:40;;;;;;;;;10.33;10.00;;;;;-149.69;100.00;58464.25;6207835;22;45532;-92
2022/01/02 09:34:06;;;;;;;;;11.00;10.67;;;;;-149.69;100.00;58464.25;6207914;22;45361;-91
2022/01/02 09:36:31;;;;;;;;;12.33;11.67;;;;;-149.69;100.00;58464.25;6210595;22;45403;-94
2022/01/02 09:38:57;;;;;;;;;12.00;11.00;;;;;-149.69;100.00;58464.25;6208022;22;45354;-92
2022/01/02 09:41:23;;;;;;;;;11.00;9.67;;;;;-149.69;100.00;58464.25;6209851;22;45646;-92
2022/01/02 09:43:49;;;;;;;;;10.67;10.00;;;;;-149.69;100.00;58464.25;6217936;22;45408;-92
2022/01/02 09:46:25;;;;;;;;;16.00;12.00;;;;;-149.69;100.00;58464.25;6226846;22;45345;-92
2022/01/02 09:48:52;;;;;;;;;11.67;11.67;;;;;-149.69;100.00;58464.25;6211921;22;46286;-92
2022/01/02 09:51:21;;;;;;;;;11.67;10.33;;;;;-149.69;100.00;58464.25;6234890;22;45293;-92
2022/01/02 09:53:47;;;;;;;;;13.00;10.00;;;;;-149.69;100.00;58464.25;6208604;22;45319;-92
2022/01/02 09:56:14;;;;;;;;;10.00;10.00;;;;;-149.69;100.00;58464.25;6233591;22;48153;-92
2022/01/02 09:58:42;;;;;;;;;14.00;11.33;;;;;-149.69;100.00;58464.25;6212502;22;45396;-91
2022/01/02 10:01:16;;;;;;;;;14.33;11.00;;;;;-149.69;100.00;58464.25;6220263;22;45319;-92
2022/01/02 10:03:44;;;;;;;;;9.00;9.00;;;;;-149.69;100.00;58464.25;6238253;22;45267;-93
2022/01/02 10:06:09;;;;;;;;;12.67;11.00;;;;;-149.69;100.00;58464.25;6236620;22;48253;-93
2022/01/02 10:08:36;;;;;;;;;8.00;8.00;;;;;-149.69;100.00;58464.25;6210483;22;45387;-92
2022/01/02 10:11:08;;;;;;;;;6.33;6.00;;;;;-149.69;100.00;58464.25;6208736;22;45341;-93
2022/01/02 10:13:42;;;;;;;;;10.67;8.33;;;;;-149.69;100.00;58464.25;6233378;22;45536;-92
2022/01/02 10:16:26;;;;;;;;;8.33;8.00;;;;;-149.69;100.00;58464.25;6207625;22;47307;-92
2022/01/02 10:18:54;;;;;;;;;7.33;6.00;;;;;-149.69;100.00;58464.25;6232643;22;45976;-93
2022/01/02 10:21:33;;;;;;;;;8.00;6.00;;;;;-149.69;100.00;58464.25;6207737;22;45260;-92
2022/01/02 10:24:17;;;;;;;;;7.67;6.00;;;;;-149.69;100.00;58464.25;6233236;22;45906;-92
2022/01/02 10:27:14;;;;;;;;;9.00;7.00;;;;;-149.69;100.00;58464.25;6206405;22;46952;-91
2022/01/02 10:29:58;;;;;;;;;10.00;6.00;;;;;-149.69;100.00;58464.25;6232432;22;45802;-92
2022/01/02 10:32:37;;;;;;;;;7.67;6.00;;;;;-149.69;100.00;58464.25;6233194;22;45363;-92
2022/01/02 10:35:22;;;;;;;;;8.33;6.00;;;;;-149.69;100.00;58464.25;6207286;22;45172;-93
2022/01/02 10:37:50;;;;;;;;;6.33;4.00;;;;;-149.69;100.00;58464.25;6207210;22;47189;-92
2022/01/02 10:40:42;;;;;;;;;4.00;4.00;;;;;-149.69;100.00;58464.25;6207335;22;45377;-96
2022/01/02 10:43:22;;;;;;;;;4.00;4.00;;;;;-149.69;100.00;58464.25;6210128;22;45275;-93
2022/01/02 10:45:50;;;;;;;;;5.00;4.00;;;;;-149.69;100.00;58464.25;6234217;22;45298;-93
2022/01/02 10:48:28;;;;;;;;;5.00;3.00;;;;;-149.69;100.00;58464.25;6208311;22;48035;-93
2022/01/02 10:51:06;;;;;;;;;5.00;5.00;;;;;-149.69;100.00;58464.25;6233433;22;45350;-93
2022/01/02 10:53:33;;;;;;;;;5.00;2.00;;;;;-149.69;100.00;58464.25;6233200;22;45395;-93
2022/01/02 10:55:59;;;;;;;;;2.67;2.67;;;;;-149.69;100.00;58464.25;6233074;22;45565;-96
2022/01/02 10:58:26;;;;;;;;;5.00;3.00;;;;;-149.69;100.00;58464.25;6207261;22;47816;-92
2022/01/02 11:00:52;;;;;;;;;5.67;3.00;;;;;-149.69;100.00;58464.25;6206613;22;45869;-92
2022/01/02 11:03:23;;;;;;;;;3.00;2.00;;;;;-149.69;100.00;58464.25;6206493;22;45396;-93
2022/01/02 11:05:56;;;;;;;;;4.00;3.00;;;;;-149.69;100.00;58464.25;6206813;22;45386;-91
2022/01/02 11:08:22;;;;;;;;;4.67;2.33;;;;;-149.69;100.00;58464.25;6207736;22;45439;-92
2022/01/02 11:10:48;;;;;;;;;3.33;3.00;;;;;-149.69;100.00;58464.25;6231406;22;45760;-91
2022/01/02 11:13:16;;;;;;;;;0.00;0.00;;;;;-149.69;100.00;58464.25;6232720;22;45267;-93
2022/01/02 11:15:42;;;;;;;;;2.00;2.00;;;;;-149.69;100.00;58464.25;6208144;22;45353;-92
2022/01/02 11:18:08;;;;;;;;;4.33;4.00;;;;;-149.69;100.00;58464.25;6207024;22;48240;-91
2022/01/02 11:20:34;;;;;;;;;3.67;2.67;;;;;-149.69;100.00;58464.25;6233023;22;46061;-90
2022/01/02 11:23:18;;;;;;;;;3.00;2.33;;;;;-149.69;100.00;58464.25;6209219;22;45325;-92
2022/01/02 11:25:50;;;;;;;;;3.00;3.00;;;;;-149.69;100.00;58464.25;6235052;22;45187;-93
2022/01/02 11:28:25;;;;;;;;;2.67;2.00;;;;;-149.69;100.00;58464.25;6233665;22;48486;-94
2022/01/02 11:30:51;;;;;;;;;4.00;3.00;;;;;-149.69;100.00;58464.25;6236571;22;45249;-95
2022/01/02 11:33:25;;;;;;;;;6.00;3.00;;;;;-149.69;100.00;58464.25;6209778;22;45361;-92
2022/01/02 11:35:51;;;;;;;;;5.33;3.00;;;;;-149.69;100.00;58464.25;6208351;22;45540;-94
2022/01/02 11:38:19;;;;;;;;;5.00;5.00;;;;;-149.69;100.00;58464.25;6209224;22;47054;-94
2022/01/02 11:40:44;;;;;;;;;3.33;2.33;;;;;-149.69;100.00;58464.25;6211073;22;45266;-94
2022/01/02 11:43:10;;;;;;;;;5.00;3.67;;;;;-149.69;100.00;58464.25;6234658;22;45576;-94
2022/01/02 11:45:35;;;;;;;;;3.00;3.00;;;;;-149.69;100.00;58464.25;6210008;22;45410;-96
2022/01/02 11:48:27;;;;;;;;;5.67;4.00;;;;;-149.69;100.00;58464.25;6236179;22;46931;-93
2022/01/02 11:50:53;;;;;;;;;3.00;3.00;;;;;-149.69;100.00;58464.25;6236168;22;46387;-95
2022/01/02 11:53:23;;;;;;;;;5.00;5.00;;;;;-149.69;100.00;58464.25;6211168;22;45236;-90
2022/01/02 11:55:50;;;;;;;;;4.33;4.33;;;;;-149.69;100.00;58464.25;6235073;22;45708;-93
2022/01/02 11:58:37;;;;;;;;;4.00;3.00;;;;;-149.69;100.00;58464.25;6208093;22;47279;-91
2022/01/02 12:01:03;;;;;;;;;4.67;4.00;;;;;-149.69;100.00;58464.25;6233448;22;45872;-92
2022/01/02 12:03:38;;;;;;;;;3.00;3.00;;;;;-149.69;100.00;58464.25;6234117;22;45291;-93
2022/01/02 12:06:32;;;;;;;;;5.33;4.00;;;;;-149.69;100.00;58464.25;6233455;22;45572;-93
2022/01/02 12:08:57;;;;;;;;;6.00;3.00;;;;;-149.69;100.00;58464.25;6209246;22;47123;-95
2022/01/02 12:11:32;;;;;;;;;4.67;3.67;;;;;-149.69;100.00;58464.25;6206903;22;45861;-91
2022/01/02 12:14:04;;;;;;;;;5.33;4.00;;;;;-149.69;100.00;58464.25;6233587;22;45479;-91
2022/01/02 12:16:42;;;;;;;;;4.67;4.33;;;;;-149.69;100.00;58464.25;6210029;22;45376;-91
2022/01/02 12:19:08;;;;;;;;;5.67;4.33;;;;;-149.69;100.00;58464.25;6234755;22;47195;-91
2022/01/02 12:21:34;;;;;;;;;3.00;3.00;;;;;-149.69;100.00;58464.25;6210424;22;45518;-89
2022/01/02 12:24:02;;;;;;;;;6.00;3.00;;;;;-149.69;100.00;58464.25;6211171;22;45335;-90
2022/01/02 12:26:35;;;;;;;;;3.67;3.67;;;;;-149.69;100.00;58464.25;6233792;22;45300;-94
2022/01/02 12:29:07;;;;;;;;;7.67;3.00;;;;;-149.69;100.00;58464.25;6211239;22;47999;-95
2022/01/02 12:31:38;;;;;;;;;3.00;3.00;;;;;-149.69;100.00;58464.25;6239648;22;45251;-96
2022/01/02 12:34:18;;;;;;;;;3.00;3.00;;;;;-149.69;100.00;58464.25;6239985;22;45251;-96
2022/01/02 12:37:03;;;;;;;;;4.00;3.00;;;;;-149.69;100.00;58464.25;6220666;22;45393;-96
2022/01/02 12:39:32;;;;;;;;;3.33;3.00;;;;;-149.69;100.00;58464.25;6240777;22;47281;-96
2022/01/02 12:42:14;;;;;;;;;4.00;4.00;;;;;-149.69;100.00;58464.25;6238965;22;45228;-96
2022/01/02 12:44:40;;;;;;;;;4.67;4.00;;;;;-149.69;100.00;58464.25;6237137;22;45263;-95
2022/01/02 12:47:08;;;;;;;;;4.33;4.33;;;;;-149.69;100.00;58464.25;6211069;22;45458;-96
2022/01/02 12:49:40;;;;;;;;;8.33;5.67;;;;;-149.69;100.00;58464.25;6210948;22;47143;-96
2022/01/02 12:52:07;;;;;;;;;6.33;4.00;;;;;-149.69;100.00;58464.25;6213553;22;45916;-96
2022/01/02 12:54:37;;;;;;;;;11.67;7.33;;;;;-149.69;100.00;58464.25;6217292;22;45591;-95
2022/01/02 12:57:09;;;;;;;;;3.67;3.67;;;;;-149.69;100.00;58464.25;6211514;22;45281;-95
2022/01/02 12:59:45;;;;;;;;;3.00;3.00;;;;;-149.69;100.00;58464.25;6211435;22;48097;-95
2022/01/02 13:02:15;;;;;;;;;5.67;4.67;;;;;-149.69;100.00;58464.25;6236463;22;45674;-96
2022/01/02 13:04:42;;;;;;;;;2.33;2.33;;;;;-149.69;100.00;58464.25;6247598;22;45475;-96
2022/01/02 13:07:36;;;;;;;;;4.33;3.33;;;;;-149.69;100.00;58464.25;6218529;22;44926;-96
2022/01/02 13:10:08;;;;;;;;;7.00;3.67;;;;;-149.69;100.00;58464.25;6242414;22;47401;-92
2022/01/02 13:12:38;;;;;;;;;6.00;4.00;;;;;-149.69;100.00;58464.25;6213964;22;45317;-96
2022/01/02 13:15:07;;;;;;;;;12.00;6.00;;;;;-149.69;100.00;58464.25;6233627;22;45321;-95
2022/01/02 13:17:45;;;;;;;;;11.00;4.33;;;;;-149.69;100.00;58464.25;6208270;22;45346;-92
2022/01/02 13:20:20;;;;;;;;;4.00;4.00;;;;;-149.69;100.00;58464.25;6207872;22;47294;-92
2022/01/02 13:22:51;;;;;;;;;1.33;1.33;;;;;-149.69;100.00;58464.25;6208933;22;45352;-91
2022/01/02 13:25:25;;;;;;;;;4.33;4.33;;;;;-149.69;100.00;58464.25;6209249;22;45334;-91
2022/01/02 13:27:58;;;;;;;;;5.00;3.00;;;;;-149.69;100.00;58464.25;6208717;22;45332;-91
2022/01/02 13:30:28;;;;;;;;;3.00;3.00;;;;;-149.69;100.00;58464.25;6208839;22;46613;-91
2022/01/02 13:32:54;;;;;;;;;6.00;4.33;;;;;-149.69;100.00;58464.25;6208874;22;45333;-88
2022/01/02 13:35:25;;;;;;;;;5.00;3.00;;;;;-149.69;100.00;58464.25;6212486;22;45211;-93
2022/01/02 13:38:04;;;;;;;;;4.67;3.00;;;;;-149.69;100.00;58464.25;6237234;22;45631;-90
2022/01/02 13:40:32;;;;;;;;;5.33;4.67;;;;;-149.69;100.00;58464.25;6211309;22;48041;-90
2022/01/02 13:43:08;;;;;;;;;3.67;2.33;;;;;-149.69;100.00;58464.25;6208098;22;45377;-90
2022/01/02 13:45:34;;;;;;;;;2.33;0.00;;;;;-149.69;100.00;58464.25;6203853;22;45444;-88
2022/01/02 13:48:12;;;;;;;;;2.00;2.00;;;;;-149.69;100.00;58464.25;6206687;22;45405;-89
2022/01/02 13:50:41;;;;;;;;;1.00;1.00;;;;;-149.69;100.00;58464.25;6230721;22;47314;-88
2022/01/02 13:53:07;;;;;;;;;4.67;3.00;;;;;-149.69;100.00;58464.25;6231692;22;46067;-89
2022/01/02 13:55:36;;;;;;;;;1.00;1.00;;;;;-149.69;100.00;58464.25;6207953;22;45425;-89
2022/01/02 13:58:28;;;;;;;;;3.00;2.33;;;;;-149.69;100.00;58464.25;6230291;22;45564;-90
2022/01/02 14:00:55;;;;;;;;;2.33;1.00;;;;;-149.69;100.00;58464.25;6205296;22;48320;-90
2022/01/02 14:03:41;;;;;;;;;2.00;2.00;;;;;-149.69;100.00;58464.25;6229723;22;45287;-90
2022/01/02 14:06:06;;;;;;;;;2.67;2.67;;;;;-149.69;100.00;58464.25;6205645;22;45268;-91
2022/01/02 14:08:45;;;;;;;;;1.67;1.67;;;;;-149.69;100.00;58464.25;6231098;22;45402;-90
2022/01/02 14:11:19;;;;;;;;;5.33;2.67;;;;;-149.69;100.00;58464.25;6230308;22;47337;-90
2022/01/02 14:13:45;;;;;;;;;2.67;2.00;;;;;-149.69;100.00;58464.25;6206981;22;45271;-90
2022/01/02 14:16:19;;;;;;;;;5.67;3.00;;;;;-149.69;100.00;58464.25;6206225;22;45406;-90
2022/01/02 14:18:45;;;;;;;;;2.67;2.67;;;;;-149.69;100.00;58464.25;6205188;22;45544;-90
2022/01/02 14:21:10;;;;;;;;;3.33;2.00;;;;;-149.69;100.00;58464.25;6232449;22;47076;-90
2022/01/02 14:23:35;;;;;;;;;4.00;2.00;;;;;-149.69;100.00;58464.25;6210400;22;50668;-91
2022/01/02 14:26:00;;;;;;;;;2.00;2.00;;;;;-149.69;100.00;58464.25;6204381;22;56527;-89
2022/01/02 14:28:26;;;;;;;;;3.00;2.00;;;;;-149.69;100.00;58464.25;6230597;22;45515;-90
2022/01/02 14:30:52;;;;;;;;;3.00;2.00;;;;;-149.69;100.00;58464.25;6230756;22;48203;-90
2022/01/02 14:33:18;;;;;;;;;4.33;2.33;;;;;-149.69;100.00;58464.25;6226845;22;45354;-89
2022/01/02 14:35:44;;;;;;;;;1.33;1.33;;;;;-149.69;100.00;58464.25;6204120;22;45416;-89
2022/01/02 14:38:09;;;;;;;;;3.67;1.00;;;;;-149.69;100.00;58464.25;6230917;22;45433;-90
2022/01/02 14:40:35;;;;;;;;;1.00;1.00;;;;;-149.69;100.00;58464.25;6206557;22;46372;-89
2022/01/02 14:43:00;;;;;;;;;2.00;2.00;;;;;-149.69;100.00;58464.25;6206526;22;45429;-89
2022/01/02 14:45:26;;;;;;;;;2.00;2.00;;;;;-149.69;100.00;58464.25;6207778;22;45210;-90
2022/01/02 14:47:52;;;;;;;;;2.00;2.00;;;;;-149.69;100.00;58464.25;6207625;22;45284;-90
2022/01/02 14:50:17;;;;;;;;;2.67;2.00;;;;;-149.69;100.00;58464.25;6205704;22;46389;-90
2022/01/02 14:52:43;;;;;;;;;0.67;0.67;;;;;-149.69;100.00;58464.25;6202743;22;45735;-89
2022/01/02 14:55:14;;;;;;;;;3.00;1.00;;;;;-149.69;100.00;58464.25;6206789;22;45275;-90
2022/01/02 14:57:41;;;;;;;;;1.00;1.00;;;;;-149.69;100.00;58464.25;6230419;22;45720;-90
2022/01/02 15:00:10;;;;;;;;;1.67;1.00;;;;;-149.69;100.00;58464.25;6207869;22;45966;-90
2022/01/02 15:02:35;;;;;;;;;1.67;1.00;;;;;-149.69;100.00;58464.25;6205442;22;45884;-90
2022/01/02 15:05:01;;;;;;;;;2.33;1.00;;;;;-149.69;100.00;58464.25;6206907;22;45353;-89
2022/01/02 15:07:26;;;;;;;;;1.00;1.00;;;;;-149.69;100.00;58464.25;6207981;22;45344;-90
2022/01/02 15:09:52;;;;;;;;;2.00;1.00;;;;;-149.69;100.00;58464.25;6200197;22;46040;-90
2022/01/02 15:12:17;;;;;;;;;2.00;2.00;;;;;-149.69;100.00;58464.25;6198721;22;45345;-89
2022/01/02 15:14:43;;;;;;;;;1.00;1.00;;;;;-149.69;100.00;58464.25;6207391;22;45613;-89
2022/01/02 15:17:08;;;;;;;;;3.00;1.67;;;;;-149.69;100.00;58464.25;6205183;22;45367;-89
2022/01/02 15:19:34;;;;;;;;;2.00;1.00;;;;;-149.69;100.00;58464.25;6206752;22;46206;-90
2022/01/02 15:21:59;;;;;;;;;2.00;1.00;;;;;-149.69;100.00;58464.25;6207020;22;45390;-90
2022/01/02 15:24:24;;;;;;;;;2.33;1.00;;;;;-149.69;100.00;58464.25;6204665;22;45641;-89
2022/01/02 15:26:50;;;;;;;;;3.67;2.00;;;;;-149.69;100.00;58464.25;6207197;22;45362;-89
2022/01/02 15:29:15;;;;;;;;;1.00;1.00;;;;;-149.69;100.00;58464.25;6206813;22;46446;-89
2022/01/02 15:31:41;;;;;;;;;1.67;1.00;;;;;-149.69;100.00;58464.25;6205939;22;45352;-89
2022/01/02 15:34:07;;;;;;;;;2.00;1.00;;;;;-149.69;100.00;58464.25;6208091;22;45338;-90
2022/01/02 15:36:33;;;;;;;;;3.33;1.33;;;;;-149.69;100.00;58464.25;6207885;22;45398;-90
2022/01/02 15:38:58;;;;;;;;;1.33;1.00;;;;;-149.69;100.00;58464.25;6207468;22;46429;-90
2022/01/02 15:41:25;;;;;;;;;2.33;1.00;;;;;-149.69;100.00;58464.25;6206888;22;45328;-94
2022/01/02 15:43:52;;;;;;;;;2.67;2.33;;;;;-149.69;100.00;58464.25;6205722;22;45338;-91
2022/01/02 15:46:17;;;;;;;;;2.00;2.00;;;;;-149.69;100.00;58464.25;6208191;22;45416;-91
2022/01/02 15:48:43;;;;;;;;;4.00;4.00;;;;;-149.69;100.00;58464.25;6205927;22;47835;-91
2022/01/02 15:51:08;;;;;;;;;5.00;4.00;;;;;-149.69;100.00;58464.25;6208800;22;54356;-92
2022/01/02 15:53:33;;;;;;;;;2.67;1.67;;;;;-149.69;100.00;58464.25;6207019;22;45350;-90
2022/01/02 15:55:59;;;;;;;;;3.00;3.00;;;;;-149.69;100.00;58464.25;6206344;22;45590;-90
2022/01/02 15:58:25;;;;;;;;;4.00;1.67;;;;;-149.69;100.00;58464.25;6228579;22;47395;-91
2022/01/02 16:00:50;;;;;;;;;2.00;2.00;;;;;-149.69;100.00;58464.25;6208612;22;45375;-90
2022/01/02 16:03:16;;;;;;;;;4.67;2.00;;;;;-149.69;100.00;58464.25;6208273;22;45673;-91
2022/01/02 16:05:44;;;;;;;;;6.00;2.33;;;;;-149.69;100.00;58464.25;6209274;22;45296;-90
2022/01/02 16:08:10;;;;;;;;;5.00;3.00;;;;;-149.69;100.00;58464.25;6205890;22;47038;-89
2022/01/02 16:10:35;;;;;;;;;3.33;3.00;;;;;-149.69;100.00;58464.25;6208398;22;45416;-90
2022/01/02 16:13:01;;;;;;;;;3.33;2.00;;;;;-149.69;100.00;58464.25;6208410;22;45405;-91
2022/01/02 16:15:26;;;;;;;;;4.67;2.67;;;;;-149.69;100.00;58464.25;6205245;22;45327;-91
2022/01/02 16:17:51;;;;;;;;;2.33;1.67;;;;;-149.69;100.00;58464.25;6207271;22;46039;-90
2022/01/02 16:20:19;;;;;;;;;2.00;2.00;;;;;-149.69;100.00;58464.25;6208420;22;45759;-91
2022/01/02 16:22:45;;;;;;;;;7.33;3.33;;;;;-149.69;100.00;58464.25;6206330;22;45416;-90
2022/01/02 16:25:11;;;;;;;;;5.67;2.67;;;;;-149.69;100.00;58464.25;6231986;22;45425;-91
2022/01/02 16:27:37;;;;;;;;;2.00;2.00;;;;;-149.69;100.00;58464.25;6205454;22;47213;-90
2022/01/02 16:30:03;;;;;;;;;2.00;2.00;;;;;-149.69;100.00;58464.25;6232119;22;45345;-91
2022/01/02 16:32:28;;;;;;;;;5.00;3.33;;;;;-149.69;100.00;58464.25;6209823;22;45518;-90
2022/01/02 16:34:54;;;;;;;;;4.33;4.00;;;;;-149.69;100.00;58464.25;6208352;22;45345;-90
2022/01/02 16:37:19;;;;;;;;;6.33;3.00;;;;;-149.69;100.00;58464.25;6205579;22;48063;-90
2022/01/02 16:39:44;;;;;;;;;3.00;2.00;;;;;-149.69;100.00;58464.25;6209312;22;45211;-90
2022/01/02 16:42:10;;;;;;;;;5.00;4.67;;;;;-149.69;100.00;58464.25;6205000;22;45260;-91
2022/01/02 16:44:35;;;;;;;;;7.00;5.33;;;;;-149.69;100.00;58464.25;6232124;22;45500;-91
2022/01/02 16:47:01;;;;;;;;;6.00;4.33;;;;;-149.69;100.00;58464.25;6208640;22;46238;-91
2022/01/02 16:49:26;;;;;;;;;6.33;4.00;;;;;-149.69;100.00;58464.25;6206313;22;46110;-90
2022/01/02 16:51:51;;;;;;;;;7.00;5.00;;;;;-149.69;100.00;58464.25;6207031;22;45311;-90
2022/01/02 16:54:17;;;;;;;;;2.00;2.00;;;;;-149.69;100.00;58464.25;6206953;22;45382;-91
2022/01/02 16:56:42;;;;;;;;;9.67;8.00;;;;;-149.69;100.00;58464.25;6206536;22;48261;-91
2022/01/02 16:59:08;;;;;;;;;7.00;6.00;;;;;-149.69;100.00;58464.25;6232644;22;45259;-90
2022/01/02 17:01:33;;;;;;;;;4.33;3.00;;;;;-149.69;100.00;58464.25;6209289;22;45351;-89
2022/01/02 17:03:59;;;;;;;;;4.67;4.00;;;;;-149.69;100.00;58464.25;6209057;22;45257;-91
2022/01/02 17:06:25;;;;;;;;;5.00;4.33;;;;;-149.69;100.00;58464.25;6207041;22;48062;-90
2022/01/02 17:08:52;;;;;;;;;11.33;10.33;;;;;-149.69;100.00;58464.25;6210122;22;45305;-90
2022/01/02 17:11:17;;;;;;;;;7.00;5.67;;;;;-149.69;100.00;58464.25;6208225;22;45586;-90
2022/01/02 17:13:49;;;;;;;;;5.67;4.00;;;;;-149.69;100.00;58464.25;6232614;22;45247;-90
2022/01/02 17:16:15;;;;;;;;;5.67;4.33;;;;;-149.69;100.00;58464.25;6207388;22;48150;-89
2022/01/02 17:18:40;;;;;;;;;5.33;3.67;;;;;-149.69;100.00;58464.25;6209272;22;45414;-90
2022/01/02 17:21:05;;;;;;;;;10.67;8.00;;;;;-149.69;100.00;58464.25;6207233;22;45252;-90
2022/01/02 17:23:31;;;;;;;;;3.00;2.00;;;;;-149.69;100.00;58464.25;6206871;22;45489;-89
2022/01/02 17:25:56;;;;;;;;;5.67;5.67;;;;;-149.69;100.00;58464.25;6232988;22;46934;-89
2022/01/02 17:28:21;;;;;;;;;12.33;8.00;;;;;-149.69;100.00;58464.25;6210384;22;45320;-89
2022/01/02 17:30:47;;;;;;;;;7.33;7.33;;;;;-149.69;100.00;58464.25;6208630;22;45332;-89
2022/01/02 17:33:12;;;;;;;;;8.00;7.33;;;;;-149.69;100.00;58464.25;6207744;22;45253;-90
2022/01/02 17:35:40;;;;;;;;;4.67;4.67;;;;;-149.69;100.00;58464.25;6206721;22;47955;-89
2022/01/02 17:38:06;;;;;;;;;13.67;9.67;;;;;-149.69;100.00;58464.25;6232392;22;45363;-89
2022/01/02 17:40:35;;;;;;;;;14.33;12.00;;;;;-149.69;100.00;58464.25;6208204;22;45461;-90
2022/01/02 17:43:02;;;;;;;;;11.33;10.33;;;;;-149.69;100.00;58464.25;6207928;22;45356;-89
2022/01/02 17:45:27;;;;;;;;;8.00;8.00;;;;;-149.69;100.00;58464.25;6208914;22;45791;-89
2022/01/02 17:47:52;;;;;;;;;3.00;3.00;;;;;-149.69;100.00;58464.25;6206631;22;45290;-89
2022/01/02 17:50:18;;;;;;;;;6.67;5.00;;;;;-149.69;100.00;58464.25;6208134;22;45315;-90
2022/01/02 17:52:44;;;;;;;;;6.67;4.00;;;;;-149.69;100.00;58464.25;6208813;22;45520;-90
2022/01/02 17:55:10;;;;;;;;;5.00;5.00;;;;;-149.69;100.00;58464.25;6208055;22;48093;-90
2022/01/02 17:57:36;;;;;;;;;7.00;3.67;;;;;-149.69;100.00;58464.25;6208113;22;45338;-90
2022/01/02 18:00:04;;;;;;;;;7.00;4.33;;;;;-149.69;100.00;58464.25;6209305;22;45527;-90
2022/01/02 18:02:30;;;;;;;;;4.00;4.00;;;;;-149.69;100.00;58464.25;6208498;22;45494;-89
2022/01/02 18:04:55;;;;;;;;;5.33;4.33;;;;;-149.69;100.00;58464.25;6232029;22;47095;-91
2022/01/02 18:07:21;;;;;;;;;5.67;4.00;;;;;-149.69;100.00;58464.25;6209611;22;45229;-90
2022/01/02 18:09:51;;;;;;;;;2.33;2.00;;;;;-149.69;100.00;58464.25;6211147;22;45403;-89
2022/01/02 18:12:19;;;;;;;;;4.00;3.00;;;;;-149.69;100.00;58464.25;6206382;22;45391;-89
2022/01/02 18:14:46;;;;;;;;;5.33;4.00;;;;;-149.69;100.00;58464.25;6207264;22;47206;-91
2022/01/02 18:17:11;;;;;;;;;6.33;6.33;;;;;-149.69;100.00;58464.25;6209335;22;45247;-90
2022/01/02 18:19:37;;;;;;;;;10.33;8.00;;;;;-149.69;100.00;58464.25;6207081;22;45291;-91
2022/01/02 18:22:02;;;;;;;;;7.67;5.67;;;;;-149.69;100.00;58464.25;6206501;22;45474;-90
2022/01/02 18:24:28;;;;;;;;;12.00;11.00;;;;;-149.69;100.00;58464.25;6232052;22;48149;-90
2022/01/02 18:26:54;;;;;;;;;5.33;5.33;;;;;-149.69;100.00;58464.25;6233222;22;45363;-89
2022/01/02 18:29:22;;;;;;;;;7.33;3.67;;;;;-149.69;100.00;58464.25;6209745;22;45477;-94
2022/01/02 18:31:48;;;;;;;;;7.00;5.00;;;;;-149.69;100.00;58464.25;6232743;22;45337;-92
2022/01/02 18:34:14;;;;;;;;;8.00;3.00;;;;;-149.69;100.00;58464.25;6212729;22;46058;-90
2022/01/02 18:36:39;;;;;;;;;5.00;3.33;;;;;-149.69;100.00;58464.25;6211949;22;45560;-92
2022/01/02 18:39:07;;;;;;;;;4.33;4.00;;;;;-149.69;100.00;58464.25;6207499;22;45545;-90
2022/01/02 18:41:33;;;;;;;;;3.00;2.00;;;;;-149.69;100.00;58464.25;6207565;22;45521;-94
2022/01/02 18:43:58;;;;;;;;;10.00;7.00;;;;;-149.69;100.00;58464.25;6213911;22;47422;-90
2022/01/02 18:46:24;;;;;;;;;5.67;5.00;;;;;-149.69;100.00;58464.25;6239206;22;44709;-90
2022/01/02 18:48:50;;;;;;;;;8.33;4.33;;;;;-149.69;100.00;58464.25;6210737;22;45400;-93
2022/01/02 18:51:16;;;;;;;;;7.67;4.67;;;;;-149.69;100.00;58464.25;6208591;22;45330;-90
2022/01/02 18:53:42;;;;;;;;;6.33;4.33;;;;;-149.69;100.00;58464.25;6206732;22;47267;-89